createdAt,value
2018-08-25T00:04:51.175Z,1.40
2018-08-25T00:09:45.660Z,1.40
2018-08-25T00:14:40.554Z,1.77
2018-08-25T00:19:35.039Z,1.80
2018-08-25T00:24:29.729Z,1.70
2018-08-25T00:29:24.350Z,1.83
2018-08-25T00:34:18.832Z,1.77
2018-08-25T00:39:13.373Z,1.70
2018-08-25T00:44:07.960Z,1.93
2018-08-25T00:49:02.480Z,1.93
2018-08-25T00:53:57.000Z,1.70
2018-08-25T00:58:51.524Z,1.90
2018-08-25T01:03:46.044Z,1.70
2018-08-25T01:08:40.578Z,1.93
2018-08-25T01:13:35.058Z,1.60
2018-08-25T01:18:29.695Z,1.60
2018-08-25T01:23:24.301Z,1.43
2018-08-25T01:28:18.999Z,1.60
2018-08-25T01:33:13.488Z,1.40
2018-08-25T01:38:07.953Z,1.50
2018-08-25T01:43:02.515Z,1.30
2018-08-25T01:47:57.232Z,1.30
2018-08-25T01:52:51.692Z,1.50
2018-08-25T01:57:46.192Z,1.60
2018-08-25T02:02:40.742Z,1.60
2018-08-25T02:07:35.656Z,1.50
2018-08-25T02:12:30.406Z,1.80
2018-08-25T02:17:24.924Z,1.57
2018-08-25T02:22:19.395Z,1.60
2018-08-25T02:27:13.888Z,1.57
2018-08-25T02:32:08.374Z,1.60
2018-08-25T02:37:02.880Z,1.47
2018-08-25T02:41:57.648Z,1.30
2018-08-25T02:46:52.089Z,1.53
2018-08-25T02:51:46.554Z,1.33
2018-08-25T02:56:41.144Z,1.57
2018-08-25T03:01:35.776Z,1.70
2018-08-25T03:06:30.276Z,1.83
2018-08-25T03:11:24.958Z,1.87
2018-08-25T03:16:19.726Z,1.90
2018-08-25T03:21:14.516Z,1.70
2018-08-25T03:26:09.038Z,1.93
2018-08-25T03:31:03.563Z,1.80
2018-08-25T03:35:58.350Z,1.87
2018-08-25T03:40:53.028Z,2.10
2018-08-25T03:45:47.502Z,2.00
2018-08-25T03:50:41.984Z,2.30
2018-08-25T03:55:36.479Z,1.90
2018-08-25T04:00:31.146Z,2.00
2018-08-25T04:05:25.651Z,2.03
2018-08-25T04:10:20.512Z,2.13
2018-08-25T04:15:14.998Z,2.10
2018-08-25T04:20:09.494Z,1.90
2018-08-25T04:25:04.157Z,1.90
2018-08-25T04:29:58.648Z,1.87
2018-08-25T04:34:53.194Z,1.90
2018-08-25T04:39:47.608Z,1.60
2018-08-25T04:44:42.078Z,1.47
2018-08-25T04:49:36.559Z,1.50
2018-08-25T04:54:31.065Z,1.30
2018-08-25T04:59:25.531Z,1.60
2018-08-25T05:04:20.040Z,1.57
2018-08-25T05:09:14.532Z,1.53
2018-08-25T05:14:09.024Z,1.60
2018-08-25T05:19:03.540Z,1.30
2018-08-25T05:23:58.030Z,1.27
2018-08-25T05:28:52.547Z,1.20
2018-08-25T05:33:47.097Z,1.00
2018-08-25T05:38:41.644Z,1.03
2018-08-25T05:43:36.161Z,1.40
2018-08-25T05:48:30.952Z,1.43
2018-08-25T05:53:25.785Z,1.40
2018-08-25T05:58:20.284Z,1.37
2018-08-25T06:03:14.768Z,1.60
2018-08-25T06:08:09.486Z,1.40
2018-08-25T06:13:04.297Z,1.60
2018-08-25T06:17:58.853Z,1.80
2018-08-25T06:22:53.342Z,1.40
2018-08-25T06:27:47.835Z,1.57
2018-08-25T06:32:42.371Z,1.50
2018-08-25T06:37:36.871Z,1.40
2018-08-25T06:42:31.519Z,1.53
2018-08-25T06:47:26.412Z,1.80
2018-08-25T06:52:20.923Z,1.90
2018-08-25T06:57:15.570Z,1.90
2018-08-25T07:02:10.209Z,2.23
2018-08-25T07:07:04.816Z,1.63
2018-08-25T07:11:59.834Z,1.60
2018-08-25T07:16:54.291Z,1.70
2018-08-25T07:21:48.955Z,1.60
2018-08-25T07:26:43.449Z,1.60
2018-08-25T07:31:38.150Z,1.73
2018-08-25T07:36:32.657Z,1.70
2018-08-25T07:41:28.397Z,1.80
2018-08-25T07:46:22.910Z,1.50
2018-08-25T07:51:17.430Z,1.90
2018-08-25T07:56:12.010Z,1.90
2018-08-25T08:01:06.866Z,1.70
2018-08-25T08:06:01.536Z,1.83
2018-08-25T08:10:56.042Z,1.60
2018-08-25T08:15:50.650Z,1.90
2018-08-25T08:20:45.336Z,2.00
2018-08-25T08:25:39.953Z,1.70
2018-08-25T08:30:34.554Z,1.83
2018-08-25T08:35:29.168Z,1.63
2018-08-25T08:40:23.769Z,1.60
2018-08-25T08:45:18.553Z,1.40
2018-08-25T08:50:13.813Z,1.60
2018-08-25T08:55:09.140Z,1.20
2018-08-25T09:00:04.074Z,1.47
2018-08-25T09:04:59.133Z,1.53
2018-08-25T09:09:53.898Z,1.20
2018-08-25T09:14:48.914Z,1.07
2018-08-25T09:19:43.806Z,1.10
2018-08-25T09:24:38.572Z,1.03
2018-08-25T09:29:33.536Z,0.90
2018-08-25T09:34:28.321Z,1.13
2018-08-25T09:39:23.081Z,1.40
2018-08-25T09:44:18.152Z,1.50
2018-08-25T09:49:13.182Z,1.13
2018-08-25T09:54:08.186Z,1.40
2018-08-25T09:59:03.435Z,1.10
2018-08-25T10:03:58.605Z,1.27
2018-08-25T10:08:53.553Z,1.00
2018-08-25T10:13:48.304Z,1.00
2018-08-25T10:18:42.892Z,1.20
2018-08-25T10:23:37.710Z,1.10
2018-08-25T10:28:32.339Z,1.20
2018-08-25T10:33:26.949Z,1.97
2018-08-25T10:38:22.301Z,1.50
2018-08-25T10:43:16.842Z,1.37
2018-08-25T10:48:11.666Z,1.53
2018-08-25T10:53:06.644Z,1.50
2018-08-25T10:58:01.412Z,2.00
2018-08-25T11:02:55.878Z,1.70
2018-08-25T11:07:50.534Z,1.67
2018-08-25T11:12:44.992Z,1.43
2018-08-25T11:17:39.449Z,1.50
2018-08-25T11:22:34.374Z,1.60
2018-08-25T11:27:29.391Z,1.60
2018-08-25T11:32:23.936Z,1.60
2018-08-25T11:37:18.581Z,1.33
2018-08-25T11:42:13.428Z,1.70
2018-08-25T11:47:14.264Z,1.23
2018-08-25T11:52:09.178Z,1.77
2018-08-25T11:57:03.847Z,1.50
2018-08-25T12:01:58.374Z,1.70
2018-08-25T12:06:52.920Z,1.70
2018-08-25T12:11:47.732Z,1.87
2018-08-25T12:16:42.388Z,1.40
2018-08-25T12:21:36.887Z,1.43
2018-08-25T12:26:31.434Z,1.43
2018-08-25T12:31:26.130Z,1.43
2018-08-25T12:36:20.777Z,1.30
2018-08-25T12:41:15.281Z,1.50
2018-08-25T12:46:09.725Z,1.60
2018-08-25T12:51:04.205Z,2.00
2018-08-25T12:55:58.695Z,1.50
2018-08-25T13:00:53.718Z,1.50
2018-08-25T13:05:48.226Z,1.30
2018-08-25T13:10:42.805Z,1.80
2018-08-25T13:15:37.461Z,1.50
2018-08-25T13:20:32.130Z,1.40
2018-08-25T13:25:26.759Z,1.40
2018-08-25T13:30:21.262Z,1.70
2018-08-25T13:35:15.800Z,1.40
2018-08-25T13:40:11.000Z,1.27
2018-08-25T13:45:05.449Z,1.60
2018-08-25T13:50:00.098Z,1.50
2018-08-25T13:54:55.311Z,2.00
2018-08-25T13:59:50.172Z,1.70
2018-08-25T14:04:44.963Z,1.53
2018-08-25T14:09:39.445Z,1.50
2018-08-25T14:14:34.055Z,1.70
2018-08-25T14:19:28.502Z,1.50
2018-08-25T14:24:22.976Z,1.60
2018-08-25T14:29:17.892Z,1.47
2018-08-25T14:34:12.998Z,1.40
2018-08-25T14:39:09.985Z,1.90
2018-08-25T14:44:05.183Z,2.10
2018-08-25T14:48:59.854Z,1.60
2018-08-25T14:53:54.588Z,1.63
2018-08-25T14:58:49.313Z,1.20
2018-08-25T15:03:43.850Z,1.40
2018-08-25T15:08:38.413Z,1.10
2018-08-25T15:13:34.945Z,1.70
2018-08-25T15:18:29.812Z,1.60
2018-08-25T15:23:24.423Z,1.50
2018-08-25T15:28:18.957Z,2.00
2018-08-25T15:33:13.630Z,2.00
2018-08-25T15:38:08.154Z,1.80
2018-08-25T15:43:02.865Z,1.60
2018-08-25T15:47:57.612Z,1.30
2018-08-25T15:52:52.501Z,1.43
2018-08-25T15:57:47.228Z,1.70
2018-08-25T16:02:41.927Z,1.80
2018-08-25T16:07:36.920Z,1.50
2018-08-25T16:12:31.691Z,1.80
2018-08-25T16:17:26.525Z,1.30
2018-08-25T16:22:21.048Z,1.33
2018-08-25T16:27:15.677Z,1.40
2018-08-25T16:32:10.200Z,1.40
2018-08-25T16:37:04.866Z,1.70
2018-08-25T16:41:59.343Z,1.60
2018-08-25T16:46:54.271Z,1.70
2018-08-25T16:51:48.696Z,1.40
2018-08-25T16:56:43.173Z,1.50
2018-08-25T17:01:37.763Z,1.20
2018-08-25T17:06:32.790Z,1.93
2018-08-25T17:11:27.328Z,1.60
2018-08-25T17:16:22.175Z,1.30
2018-08-25T17:21:16.740Z,1.37
2018-08-25T17:26:11.530Z,1.30
2018-08-25T17:31:06.198Z,1.30
2018-08-25T17:36:01.484Z,1.70
2018-08-25T17:40:56.165Z,1.70
2018-08-25T17:45:50.602Z,1.47
2018-08-25T17:50:45.090Z,1.80
2018-08-25T17:55:39.528Z,1.60
2018-08-25T18:00:34.048Z,1.70
2018-08-25T18:05:28.722Z,1.50
2018-08-25T18:10:23.237Z,1.60
2018-08-25T18:15:17.771Z,1.80
2018-08-25T18:20:12.496Z,1.60
2018-08-25T18:25:06.955Z,1.60
2018-08-25T18:30:01.977Z,1.73
2018-08-25T18:34:56.976Z,1.93
2018-08-25T18:39:51.496Z,1.50
2018-08-25T18:44:46.509Z,1.50
2018-08-25T18:49:41.160Z,1.40
2018-08-25T18:54:35.793Z,1.67
2018-08-25T18:59:30.521Z,1.73
2018-08-25T19:04:25.080Z,1.57
2018-08-25T19:09:19.576Z,1.60
2018-08-25T19:14:14.101Z,1.80
2018-08-25T19:19:08.791Z,1.60
2018-08-25T19:24:03.607Z,1.67
2018-08-25T19:28:58.237Z,1.80
2018-08-25T19:33:53.178Z,1.47
2018-08-25T19:38:47.646Z,1.77
2018-08-25T19:43:42.146Z,1.60
2018-08-25T19:48:37.178Z,1.43
2018-08-25T19:53:31.659Z,1.77
2018-08-25T19:58:26.132Z,1.50
2018-08-25T20:03:20.632Z,1.63
2018-08-25T20:08:15.305Z,1.57
2018-08-25T20:13:10.285Z,1.40
2018-08-25T20:18:04.786Z,1.50
2018-08-25T20:22:59.462Z,1.50
2018-08-25T20:27:54.088Z,1.30
2018-08-25T20:32:48.832Z,1.20
2018-08-25T20:37:43.390Z,1.73
2018-08-25T20:42:37.920Z,1.70
2018-08-25T20:47:32.957Z,1.67
2018-08-25T20:52:27.509Z,2.07
2018-08-25T20:57:22.065Z,1.60
2018-08-25T21:02:16.645Z,1.60
2018-08-25T21:07:11.331Z,1.83
2018-08-25T21:12:05.783Z,1.87
2018-08-25T21:17:00.324Z,2.00
2018-08-25T21:21:54.931Z,1.70
2018-08-25T21:26:49.736Z,2.10
2018-08-25T21:31:44.228Z,2.10
2018-08-25T21:36:38.965Z,2.20
2018-08-25T21:41:33.776Z,2.20
2018-08-25T21:46:28.660Z,2.30
2018-08-25T21:51:23.140Z,1.70
2018-08-25T21:56:17.605Z,1.70
2018-08-25T22:01:12.263Z,1.63
2018-08-25T22:06:07.204Z,1.90
2018-08-25T22:11:01.862Z,2.10
2018-08-25T22:15:56.328Z,1.90
2018-08-25T22:20:50.877Z,1.70
2018-08-25T22:25:45.628Z,2.30
2018-08-25T22:30:40.148Z,2.00
2018-08-25T22:35:34.593Z,2.50
2018-08-25T22:40:29.110Z,2.37
2018-08-25T22:45:23.610Z,2.00
2018-08-25T22:50:18.112Z,2.30
2018-08-25T22:55:12.581Z,1.97
2018-08-25T23:00:07.087Z,2.03
2018-08-25T23:05:03.932Z,1.80
2018-08-25T23:09:58.387Z,2.50
2018-08-25T23:14:52.861Z,2.60
2018-08-25T23:19:47.280Z,2.23
2018-08-25T23:24:42.006Z,2.40
2018-08-25T23:29:36.476Z,2.10
2018-08-25T23:34:31.080Z,2.47
2018-08-25T23:39:25.552Z,3.03
2018-08-25T23:44:20.067Z,2.70
2018-08-25T23:49:14.802Z,3.00
2018-08-25T23:54:09.339Z,3.80
2018-08-25T23:59:04.076Z,2.90
